Time;durP1;ratioP1;P1;durP2;ratioP2;P2;SDS_P1;SDS_P2;PMS_P1;PMS_P2;Temp;Humidity;BMP_temperature;BMP_pressure;BME280_temperature;BME280_humidity;BME280_pressure;Samples;Min_cycle;Max_cycle;Signal;HPM_P1;HPM_P2
2022/12/30 00:01:31;;;;;;;11.30;8.20;;;;;;;7.58;69.62;100003.10;109058;1254;37013;-71
2022/12/30 00:04:05;;;;;;;13.40;8.50;;;;;;;7.59;69.77;100002.38;108971;1254;36975;-75
2022/12/30 00:06:40;;;;;;;12.40;7.70;;;;;;;7.61;69.85;100006.50;108966;1254;36923;-76
2022/12/30 00:09:20;;;;;;;12.10;9.00;;;;;;;7.61;69.87;100006.98;108999;1260;38437;-73
2022/12/30 00:33:05;;;;;;;10.20;8.30;;;;;;;7.61;69.66;100007.88;108988;1254;37169;-74
2022/12/30 00:35:27;;;;;;;11.70;8.20;;;;;;;7.27;69.85;100028.35;108976;1255;37018;-75
2022/12/30 00:38:04;;;;;;;13.20;8.50;;;;;;;7.21;69.98;100030.62;108917;1264;37082;-76
2022/12/30 00:43:07;;;;;;;12.80;8.70;;;;;;;7.13;69.97;100031.02;108984;1263;38240;-74
2022/12/30 00:43:39;;;;;;;11.90;8.20;;;;;;;7.02;70.17;100030.48;108904;1265;38710;-73
2022/12/30 00:46:22;;;;;;;10.50;8.10;;;;;;;6.94;70.25;100025.51;108988;1273;37110;-75
2022/12/30 00:57:39;;;;;;;14.30;9.30;;;;;;;6.66;70.95;100038.42;108853;1273;37041;-75
2022/12/30 01:00:22;;;;;;;12.70;9.30;;;;;;;6.60;71.17;100036.50;108955;1254;37042;-76
2022/12/30 01:02:57;;;;;;;12.40;7.90;;;;;;;6.52;71.15;100039.50;108973;1264;37508;-77
2022/12/30 01:05:32;;;;;;;12.20;8.20;;;;;;;6.46;71.41;100048.48;108996;1257;37390;-78
2022/12/30 01:08:07;;;;;;;11.10;8.40;;;;;;;6.42;71.57;100044.44;108920;1251;36066;-78
2022/12/30 01:10:43;;;;;;;12.70;8.90;;;;;;;6.39;71.82;100047.13;108993;1251;37337;-76
2022/12/30 01:13:18;;;;;;;13.60;9.10;;;;;;;6.37;71.80;100052.89;108995;1254;38069;-78
2022/12/30 01:15:53;;;;;;;12.60;8.60;;;;;;;6.35;72.25;100056.39;108874;1264;37106;-78
2022/12/30 01:18:27;;;;;;;12.60;8.60;;;;;;;6.36;72.32;100050.84;108979;1254;36964;-78
2022/12/30 01:21:04;;;;;;;11.40;8.40;;;;;;;6.38;72.31;100042.80;108969;1255;36827;-74
2022/12/30 01:23:39;;;;;;;12.10;7.60;;;;;;;6.43;72.40;100038.51;108976;1261;37041;-73
2022/12/30 01:26:16;;;;;;;11.40;7.80;;;;;;;6.49;72.56;100039.92;108945;1273;37050;-76
2022/12/30 01:28:52;;;;;;;10.90;8.20;;;;;;;6.53;72.37;100036.00;108954;1266;37303;-76
2022/12/30 01:31:31;;;;;;;12.30;8.70;;;;;;;6.55;72.39;100033.36;108963;1254;37142;-75
2022/12/30 01:34:12;;;;;;;11.20;8.10;;;;;;;6.56;72.25;100035.05;109010;1273;37175;-75
2022/12/30 01:36:48;;;;;;;13.00;8.60;;;;;;;6.55;72.41;100031.80;108977;1264;37005;-78
2022/12/30 01:39:25;;;;;;;11.20;7.90;;;;;;;6.53;72.12;100036.70;108967;1254;36989;-78
2022/12/30 01:41:59;;;;;;;11.80;8.00;;;;;;;6.53;72.27;100041.55;109059;1252;37336;-74
2022/12/30 01:44:59;;;;;;;12.30;8.60;;;;;;;6.52;72.26;100042.45;109009;1257;37247;-73
2022/12/30 01:47:44;;;;;;;15.30;8.90;;;;;;;6.50;72.18;100046.14;108948;1261;36143;-75
2022/12/30 01:50:32;;;;;;;12.10;8.30;;;;;;;6.46;72.19;100044.16;108962;1254;37004;-76
2022/12/30 01:53:09;;;;;;;12.00;9.10;;;;;;;6.39;72.21;100049.70;108902;1256;37319;-77
2022/12/30 01:55:46;;;;;;;12.00;8.10;;;;;;;6.32;72.13;100049.91;108998;1273;37554;-73
2022/12/30 01:58:23;;;;;;;14.40;8.40;;;;;;;6.24;72.33;100049.58;108951;1257;37437;-75
2022/12/30 02:01:02;;;;;;;11.20;7.90;;;;;;;6.20;72.58;100061.29;109001;1273;36937;-75
2022/12/30 02:03:38;;;;;;;12.00;8.00;;;;;;;6.21;72.69;100062.83;108898;1257;37113;-74
2022/12/30 02:06:15;;;;;;;12.00;8.90;;;;;;;6.25;72.89;100066.70;109049;1251;36969;-74
2022/12/30 02:08:50;;;;;;;16.30;9.70;;;;;;;6.28;72.88;100063.86;108917;1273;37181;-74
2022/12/30 02:11:25;;;;;;;14.90;9.00;;;;;;;6.30;72.83;100046.47;108950;1250;36499;-73
2022/12/30 02:14:01;;;;;;;13.50;8.50;;;;;;;6.32;72.82;100042.63;108949;1251;37180;-75
2022/12/30 02:16:53;;;;;;;14.70;9.10;;;;;;;6.34;72.71;100046.39;108994;1273;37284;-74
2022/12/30 02:19:58;;;;;;;12.30;8.20;;;;;;;6.32;72.84;100047.98;108966;1254;37059;-74
2022/12/30 02:22:42;;;;;;;13.10;9.40;;;;;;;6.34;72.85;100050.37;108909;1251;36977;-75
2022/12/30 02:25:57;;;;;;;11.80;9.00;;;;;;;6.33;72.83;100055.41;108945;1273;36927;-75
2022/12/30 02:29:30;;;;;;;12.10;8.40;;;;;;;6.33;72.82;100058.88;108903;1254;37824;-73
2022/12/30 02:32:09;;;;;;;12.90;8.10;;;;;;;6.33;72.86;100061.30;108732;1257;37219;-76
2022/12/30 02:34:54;;;;;;;12.60;8.00;;;;;;;6.36;72.78;100067.48;108943;1251;36988;-77
2022/12/30 02:37:36;;;;;;;10.60;8.50;;;;;;;6.40;72.98;100066.84;108947;1254;37350;-75
2022/12/30 02:40:17;;;;;;;11.40;8.80;;;;;;;6.44;72.99;100067.77;108978;1273;37338;-74
2022/12/30 02:45:58;;;;;;;12.00;9.00;;;;;;;6.44;72.66;100066.91;108805;1273;36081;-75
2022/12/30 02:48:35;;;;;;;13.50;8.50;;;;;;;6.41;72.65;100068.19;108992;1261;36985;-74
2022/12/30 02:54:07;;;;;;;12.80;8.80;;;;;;;6.38;72.82;100065.34;108956;1273;37471;-74
2022/12/30 02:56:51;;;;;;;11.60;8.30;;;;;;;6.36;72.58;100067.98;109035;1254;37117;-73
2022/12/30 03:05:39;;;;;;;13.20;8.90;;;;;;;6.22;73.00;100074.75;108880;1251;37596;-77
2022/12/30 03:08:21;;;;;;;11.50;8.50;;;;;;;6.17;73.03;100077.12;108942;1251;39231;-75
2022/12/30 03:11:16;;;;;;;11.90;8.90;;;;;;;6.14;73.01;100078.05;108973;1257;37039;-72
2022/12/30 03:14:00;;;;;;;12.10;8.40;;;;;;;6.11;73.19;100073.96;108882;1257;37372;-75
2022/12/30 03:16:41;;;;;;;12.10;9.20;;;;;;;6.09;73.13;100080.79;108955;1273;37520;-75
2022/12/30 03:19:19;;;;;;;12.80;9.00;;;;;;;6.06;73.15;100081.90;108771;1257;174811;-74
2022/12/30 03:21:54;;;;;;;13.20;8.90;;;;;;;6.01;73.38;100082.70;108981;1254;36549;-78
2022/12/30 03:27:25;;;;;;;14.00;9.50;;;;;;;5.93;73.39;100092.92;108914;1256;37067;-76
2022/12/30 03:30:01;;;;;;;13.40;9.30;;;;;;;5.89;73.44;100092.83;108910;1251;37051;-76
2022/12/30 03:32:35;;;;;;;12.80;9.40;;;;;;;5.85;73.53;100095.85;108970;1257;37238;-76
2022/12/30 03:35:14;;;;;;;12.90;9.60;;;;;;;5.79;73.45;100098.59;108964;1253;38428;-74
2022/12/30 03:37:56;;;;;;;13.90;9.30;;;;;;;5.75;73.65;100097.47;108973;1257;36953;-74
2022/12/30 03:40:35;;;;;;;14.20;8.80;;;;;;;5.71;74.00;100102.58;109027;1273;37248;-77
2022/12/30 03:43:14;;;;;;;14.00;9.60;;;;;;;5.69;73.96;100103.14;108953;1273;37229;-77
2022/12/30 03:45:49;;;;;;;14.50;9.50;;;;;;;5.66;73.97;100101.29;108953;1253;37126;-74
2022/12/30 03:48:29;;;;;;;14.30;9.80;;;;;;;5.65;73.95;100105.82;108938;1256;37204;-76
2022/12/30 03:51:03;;;;;;;15.00;10.20;;;;;;;5.63;74.15;100106.91;108875;1252;174616;-76
2022/12/30 03:53:40;;;;;;;15.20;9.50;;;;;;;5.59;74.33;100100.95;109005;1254;37139;-77
2022/12/30 03:56:17;;;;;;;13.80;9.10;;;;;;;5.55;74.11;100104.33;108963;1273;36925;-76
2022/12/30 03:58:52;;;;;;;14.00;9.40;;;;;;;5.54;74.46;100100.88;108877;1257;36563;-74
2022/12/30 04:01:34;;;;;;;13.80;10.00;;;;;;;5.53;74.49;100108.52;108940;1255;37780;-72
2022/12/30 04:04:08;;;;;;;14.60;10.00;;;;;;;5.52;74.58;100109.06;108968;1273;37174;-73
2022/12/30 04:06:46;;;;;;;17.30;10.40;;;;;;;5.50;74.42;100109.97;108889;1260;36588;-73
2022/12/30 04:09:20;;;;;;;13.50;9.70;;;;;;;5.45;74.58;100114.39;108966;1273;37107;-75
2022/12/30 04:11:57;;;;;;;16.20;9.80;;;;;;;5.42;74.49;100116.54;108961;1254;37931;-75
2022/12/30 04:14:31;;;;;;;14.30;10.00;;;;;;;5.40;74.75;100123.33;108936;1273;37249;-74
2022/12/30 04:17:07;;;;;;;18.80;10.70;;;;;;;5.40;75.00;100122.62;108911;1256;37502;-76
2022/12/30 04:19:44;;;;;;;16.50;10.30;;;;;;;5.40;74.85;100120.91;109028;1251;38600;-76
2022/12/30 04:22:18;;;;;;;20.00;11.10;;;;;;;5.37;74.91;100118.89;108913;1254;36333;-75
2022/12/30 04:24:55;;;;;;;15.90;10.10;;;;;;;5.34;75.12;100120.15;108843;1263;37386;-73
2022/12/30 04:27:29;;;;;;;15.90;9.80;;;;;;;5.33;75.09;100121.73;108959;1256;37550;-76
2022/12/30 04:30:03;;;;;;;17.20;10.70;;;;;;;5.33;75.23;100125.02;108904;1259;36500;-76
2022/12/30 04:32:39;;;;;;;15.40;10.50;;;;;;;5.32;75.23;100128.67;108935;1253;37260;-76
2022/12/30 04:35:15;;;;;;;18.80;11.50;;;;;;;5.32;75.12;100128.15;108947;1254;36137;-75
2022/12/30 04:37:56;;;;;;;16.40;10.50;;;;;;;5.32;75.25;100128.67;108955;1253;38627;-72
2022/12/30 04:40:33;;;;;;;16.00;10.60;;;;;;;5.30;75.44;100121.96;108954;1273;37317;-77
2022/12/30 04:43:10;;;;;;;17.90;10.80;;;;;;;5.30;75.38;100115.23;108937;1273;36987;-75
2022/12/30 04:45:46;;;;;;;13.80;10.20;;;;;;;5.33;75.54;100117.77;108967;1251;36352;-74
2022/12/30 04:48:20;;;;;;;14.30;9.90;;;;;;;5.36;75.79;100118.38;108978;1273;37056;-75
2022/12/30 04:50:57;;;;;;;16.10;10.90;;;;;;;5.40;75.68;100118.30;108920;1253;36972;-75
2022/12/30 04:53:32;;;;;;;15.60;10.40;;;;;;;5.42;75.53;100118.61;108884;1253;174616;-73
2022/12/30 04:56:10;;;;;;;13.90;9.50;;;;;;;5.44;75.49;100119.27;108946;1263;37412;-78
2022/12/30 04:58:44;;;;;;;13.50;9.60;;;;;;;5.45;75.73;100124.77;108877;1273;174576;-76
2022/12/30 05:01:22;;;;;;;15.30;9.70;;;;;;;5.49;75.68;100128.85;109006;1273;37179;-76
2022/12/30 05:03:57;;;;;;;13.80;10.00;;;;;;;5.52;75.62;100130.52;108925;1250;37147;-73
2022/12/30 05:06:31;;;;;;;15.30;10.00;;;;;;;5.53;75.60;100127.20;108988;1251;37020;-74
2022/12/30 05:09:06;;;;;;;14.80;9.50;;;;;;;5.53;75.61;100133.09;108931;1251;36557;-76
2022/12/30 05:11:40;;;;;;;14.60;9.90;;;;;;;5.54;75.76;100133.58;108881;1273;37473;-74
2022/12/30 05:14:16;;;;;;;12.50;8.90;;;;;;;5.58;75.82;100138.52;108920;1267;37128;-77
2022/12/30 05:16:53;;;;;;;13.30;9.70;;;;;;;5.63;75.82;100135.30;108991;1267;36842;-73
2022/12/30 05:19:28;;;;;;;15.00;11.10;;;;;;;5.68;75.80;100135.19;108937;1266;37538;-73
2022/12/30 05:22:03;;;;;;;15.00;10.60;;;;;;;5.73;75.84;100136.98;108962;1251;37294;-73
2022/12/30 05:27:33;;;;;;;13.40;9.30;;;;;;;5.80;75.82;100138.89;108908;1273;37353;-73
2022/12/30 05:30:10;;;;;;;13.70;9.30;;;;;;;5.83;75.76;100141.60;108967;1273;36926;-75
2022/12/30 05:32:49;;;;;;;14.50;10.10;;;;;;;5.88;75.74;100140.48;109019;1251;37265;-78
2022/12/30 05:35:29;;;;;;;13.80;9.50;;;;;;;5.92;75.90;100149.74;108956;1257;36944;-76
2022/12/30 05:38:08;;;;;;;14.40;9.80;;;;;;;5.94;75.69;100152.11;108938;1257;36932;-74
2022/12/30 05:40:42;;;;;;;14.80;9.40;;;;;;;5.97;75.74;100153.80;108983;1255;37148;-71
2022/12/30 05:43:19;;;;;;;12.20;8.70;;;;;;;6.00;75.72;100154.42;108913;1273;38250;-72
2022/12/30 05:45:57;;;;;;;18.40;9.20;;;;;;;6.02;75.69;100167.19;108961;1273;37419;-77
2022/12/30 05:48:35;;;;;;;13.50;8.80;;;;;;;6.07;75.83;100168.11;108963;1255;37218;-77
2022/12/30 05:51:10;;;;;;;11.10;8.40;;;;;;;6.13;75.63;100176.80;108996;1253;37124;-76
2022/12/30 05:53:45;;;;;;;12.10;9.40;;;;;;;6.19;75.73;100182.55;108915;1257;37095;-76
2022/12/30 05:56:28;;;;;;;12.90;9.50;;;;;;;6.24;75.69;100180.02;108988;1273;36981;-76
2022/12/30 05:59:06;;;;;;;13.10;9.00;;;;;;;6.26;75.43;100181.53;108981;1253;37323;-76
2022/12/30 06:01:40;;;;;;;13.40;8.80;;;;;;;6.29;75.42;100179.54;108953;1273;37564;-75
2022/12/30 06:04:21;;;;;;;12.50;8.90;;;;;;;6.32;75.27;100185.54;108964;1273;36941;-72
2022/12/30 06:06:55;;;;;;;14.60;9.80;;;;;;;6.36;75.49;100185.46;108966;1253;37008;-76
2022/12/30 06:09:39;;;;;;;14.50;9.00;;;;;;;6.38;75.39;100180.71;108292;1273;910929;-76
2022/12/30 06:12:16;;;;;;;16.70;9.70;;;;;;;6.39;75.13;100179.12;108963;1253;37285;-74
2022/12/30 06:14:52;;;;;;;15.40;9.40;;;;;;;6.39;75.13;100182.44;108789;1270;172687;-72
2022/12/30 06:17:29;;;;;;;15.90;9.30;;;;;;;6.39;74.99;100187.63;108969;1254;36929;-73
2022/12/30 06:20:09;;;;;;;15.40;9.40;;;;;;;6.39;75.22;100185.02;108968;1251;37068;-74
2022/12/30 06:22:44;;;;;;;11.30;8.90;;;;;;;6.41;75.18;100187.92;108955;1250;37081;-72
2022/12/30 06:25:21;;;;;;;13.40;9.80;;;;;;;6.43;75.21;100191.00;108474;1273;578582;-74
2022/12/30 06:27:59;;;;;;;11.30;9.30;;;;;;;6.43;75.16;100193.41;109013;1250;37060;-75
2022/12/30 06:30:35;;;;;;;11.90;8.90;;;;;;;6.43;75.22;100198.45;109045;1251;37046;-74
2022/12/30 06:33:12;;;;;;;11.80;8.60;;;;;;;6.44;75.26;100196.00;108973;1251;38552;-74
2022/12/30 06:35:46;;;;;;;12.00;8.90;;;;;;;6.45;75.29;100199.77;108988;1251;38330;-73
2022/12/30 06:38:21;;;;;;;14.90;8.80;;;;;;;6.47;75.22;100210.66;108917;1253;36194;-75
2022/12/30 06:40:55;;;;;;;11.70;8.90;;;;;;;6.49;75.27;100215.28;108326;1273;906494;-77
2022/12/30 06:43:30;;;;;;;13.30;8.90;;;;;;;6.50;75.27;100218.20;109024;1254;36989;-74
2022/12/30 06:46:07;;;;;;;12.30;9.10;;;;;;;6.51;75.41;100224.42;108979;1273;37883;-75
2022/12/30 06:48:41;;;;;;;11.30;8.40;;;;;;;6.53;75.50;100228.73;108970;1264;36644;-76
2022/12/30 06:51:17;;;;;;;14.20;9.30;;;;;;;6.55;75.51;100224.33;108971;1253;37339;-77
2022/12/30 06:53:52;;;;;;;13.30;9.00;;;;;;;6.58;75.38;100230.48;109024;1263;37084;-76
2022/12/30 06:56:31;;;;;;;15.50;9.70;;;;;;;6.61;75.46;100231.83;108918;1273;36988;-72
2022/12/30 06:59:15;;;;;;;13.10;9.30;;;;;;;6.61;75.44;100241.34;108965;1265;37138;-75
2022/12/30 07:01:54;;;;;;;13.70;9.10;;;;;;;6.62;75.27;100248.10;108910;1251;37342;-75
2022/12/30 07:04:30;;;;;;;16.00;10.60;;;;;;;6.62;75.05;100248.59;108958;1258;36945;-75
2022/12/30 07:07:09;;;;;;;11.70;9.10;;;;;;;6.64;75.40;100253.04;108960;1257;37570;-77
2022/12/30 07:09:45;;;;;;;12.60;8.50;;;;;;;6.67;75.38;100256.44;108931;1273;36425;-75
2022/12/30 07:12:23;;;;;;;15.60;9.60;;;;;;;6.70;75.52;100261.77;108269;1251;910374;-75
2022/12/30 07:14:58;;;;;;;16.00;9.90;;;;;;;6.70;75.48;100268.34;108957;1263;37235;-75
2022/12/30 07:17:38;;;;;;;15.30;9.00;;;;;;;6.70;75.44;100282.89;108964;1273;37383;-78
2022/12/30 07:20:17;;;;;;;13.30;9.50;;;;;;;6.71;75.48;100282.00;108871;1259;37193;-75
2022/12/30 07:22:52;;;;;;;12.80;8.80;;;;;;;6.74;75.42;100284.88;108903;1259;37600;-76
2022/12/30 07:25:32;;;;;;;11.80;9.00;;;;;;;6.76;75.39;100294.91;108966;1254;37350;-76
2022/12/30 07:28:07;;;;;;;12.70;9.20;;;;;;;6.77;75.39;100298.88;108917;1258;35970;-75
2022/12/30 07:30:42;;;;;;;12.70;9.60;;;;;;;6.77;75.40;100297.66;109002;1251;37020;-74
2022/12/30 07:33:16;;;;;;;12.10;8.50;;;;;;;6.75;75.49;100298.55;108970;1254;36085;-73
2022/12/30 07:35:54;;;;;;;14.40;9.60;;;;;;;6.76;75.60;100304.63;108770;1256;172670;-77
2022/12/30 07:38:28;;;;;;;15.30;9.30;;;;;;;6.78;75.53;100300.41;108950;1266;38744;-77
2022/12/30 07:41:03;;;;;;;14.30;9.60;;;;;;;6.79;75.54;100305.91;108965;1253;37231;-74
2022/12/30 07:43:38;;;;;;;15.60;10.00;;;;;;;6.80;75.41;100308.68;108883;1269;37955;-74
2022/12/30 07:46:17;;;;;;;15.20;9.40;;;;;;;6.81;75.53;100318.02;108934;1257;37238;-73
2022/12/30 07:48:54;;;;;;;15.80;9.90;;;;;;;6.82;75.60;100323.55;108936;1273;38463;-75
2022/12/30 07:51:29;;;;;;;11.20;8.60;;;;;;;6.83;75.55;100324.73;108975;1251;36938;-73
2022/12/30 07:54:03;;;;;;;11.50;8.90;;;;;;;6.85;75.58;100321.75;108938;1257;37293;-75
2022/12/30 07:56:40;;;;;;;14.40;9.10;;;;;;;6.88;75.66;100323.23;108951;1264;37102;-73
2022/12/30 07:59:17;;;;;;;11.30;8.60;;;;;;;6.91;75.77;100330.61;108924;1251;37493;-73
2022/12/30 08:01:51;;;;;;;12.00;9.80;;;;;;;6.94;75.69;100334.34;108931;1263;37120;-74
2022/12/30 08:04:26;;;;;;;13.40;8.20;;;;;;;6.96;75.79;100335.86;108945;1254;38961;-74
2022/12/30 08:07:01;;;;;;;12.40;7.70;;;;;;;6.99;75.71;100342.90;108954;1273;36501;-75
2022/12/30 08:09:37;;;;;;;12.50;8.20;;;;;;;7.04;75.75;100345.23;108936;1251;37723;-75
2022/12/30 08:12:16;;;;;;;10.00;7.70;;;;;;;7.08;75.66;100349.78;108986;1254;37112;-75
2022/12/30 08:14:50;;;;;;;11.10;8.00;;;;;;;7.12;75.70;100347.61;109019;1251;36245;-78
2022/12/30 08:17:24;;;;;;;12.50;8.70;;;;;;;7.16;75.68;100345.27;109008;1263;36990;-74
2022/12/30 08:20:01;;;;;;;11.20;7.50;;;;;;;7.20;75.65;100353.34;108980;1253;37483;-73
2022/12/30 08:22:40;;;;;;;11.60;8.00;;;;;;;7.21;75.72;100355.73;108968;1273;37102;-78
2022/12/30 08:25:20;;;;;;;12.10;7.30;;;;;;;7.26;75.69;100360.48;108888;1273;37102;-78
2022/12/30 08:27:56;;;;;;;10.30;7.80;;;;;;;7.29;75.54;100358.50;108886;1273;36313;-76
2022/12/30 08:30:34;;;;;;;9.80;7.00;;;;;;;7.33;75.54;100358.91;108908;1254;36478;-76
2022/12/30 08:33:09;;;;;;;12.90;8.00;;;;;;;7.36;75.52;100363.71;108952;1273;37938;-78
2022/12/30 08:35:45;;;;;;;11.50;8.10;;;;;;;7.39;75.33;100364.66;108933;1261;38785;-77
2022/12/30 08:38:23;;;;;;;11.90;7.60;;;;;;;7.40;75.23;100371.07;108695;1254;188749;-77
2022/12/30 08:41:10;;;;;;;10.70;8.40;;;;;;;7.40;75.27;100381.30;108930;1254;36970;-74
2022/12/30 08:43:45;;;;;;;10.60;7.00;;;;;;;7.41;75.28;100387.67;108949;1250;37522;-76
2022/12/30 08:46:20;;;;;;;11.20;8.10;;;;;;;7.45;75.42;100387.79;108967;1254;38435;-75
2022/12/30 08:48:55;;;;;;;12.40;8.50;;;;;;;7.49;75.36;100391.48;108944;1253;37041;-75
2022/12/30 08:51:31;;;;;;;13.10;8.70;;;;;;;7.55;75.40;100393.25;108948;1257;37088;-75
2022/12/30 08:54:08;;;;;;;16.30;9.20;;;;;;;7.60;75.27;100394.16;108856;1273;38790;-76
2022/12/30 08:56:45;;;;;;;12.40;8.90;;;;;;;7.67;75.46;100400.91;108966;1273;37652;-74
2022/12/30 08:59:23;;;;;;;14.50;9.00;;;;;;;7.75;75.65;100399.32;108899;1251;36938;-75
2022/12/30 09:02:09;;;;;;;11.30;7.90;;;;;;;7.89;75.71;100399.14;108988;1273;36626;-76
2022/12/30 09:04:43;;;;;;;11.10;8.10;;;;;;;8.06;75.55;100400.42;109023;1250;37302;-75
2022/12/30 09:07:22;;;;;;;15.20;9.00;;;;;;;8.24;75.14;100402.52;109006;1273;36138;-74
2022/12/30 09:09:57;;;;;;;10.60;8.20;;;;;;;8.39;74.68;100402.47;108871;1258;37498;-73
2022/12/30 09:12:31;;;;;;;12.10;7.90;;;;;;;8.59;74.40;100410.27;109029;1253;37158;-73
2022/12/30 09:15:07;;;;;;;11.40;7.30;;;;;;;8.78;74.10;100412.47;108959;1263;37080;-73
2022/12/30 09:17:42;;;;;;;11.50;7.00;;;;;;;8.95;73.45;100411.97;109024;1257;36973;-71
2022/12/30 09:20:23;;;;;;;12.60;7.40;;;;;;;9.10;72.84;100409.56;108964;1253;38241;-79
2022/12/30 09:22:59;;;;;;;10.20;7.50;;;;;;;9.18;72.08;100410.55;108954;1257;37156;-76
2022/12/30 09:25:34;;;;;;;10.60;6.70;;;;;;;9.22;71.83;100404.85;108959;1253;37162;-74
2022/12/30 09:28:12;;;;;;;10.10;6.70;;;;;;;9.28;71.64;100407.59;108984;1251;37012;-73
2022/12/30 09:30:52;;;;;;;11.70;6.40;;;;;;;9.39;71.36;100410.05;108966;1253;37144;-78
2022/12/30 09:33:29;;;;;;;12.60;6.80;;;;;;;9.55;71.20;100410.77;108962;1251;37091;-75
2022/12/30 09:36:09;;;;;;;9.40;6.00;;;;;;;9.74;70.79;100403.84;108990;1261;37435;-77
2022/12/30 09:38:44;;;;;;;8.70;5.10;;;;;;;9.91;70.35;100407.24;109013;1273;36917;-79
2022/12/30 09:44:27;;;;;;;8.70;4.70;;;;;;;10.44;68.68;100410.80;108961;1273;37269;-77
2022/12/30 09:47:14;;;;;;;6.90;4.50;;;;;;;10.73;68.23;100414.08;108347;1261;899709;-73
2022/12/30 09:49:53;;;;;;;7.60;4.40;;;;;;;11.05;67.64;100422.77;108979;1257;38543;-74
2022/12/30 09:52:31;;;;;;;6.80;3.70;;;;;;;11.37;66.57;100423.95;108964;1253;37021;-75
2022/12/30 09:55:11;;;;;;;6.50;3.80;;;;;;;11.69;65.92;100421.77;108950;1273;37231;-74
2022/12/30 09:57:49;;;;;;;8.60;4.30;;;;;;;12.01;64.47;100411.89;108940;1257;36244;-74
2022/12/30 10:00:25;;;;;;;7.10;3.20;;;;;;;12.29;63.86;100411.36;108957;1251;37191;-75
2022/12/30 10:03:05;;;;;;;5.70;3.50;;;;;;;12.47;63.27;100410.89;108954;1254;37170;-74
2022/12/30 10:06:08;;;;;;;5.90;3.60;;;;;;;12.68;62.41;100407.34;108968;1258;37170;-74
2022/12/30 10:09:20;;;;;;;9.40;3.40;;;;;;;12.84;61.50;100410.05;108894;1257;37199;-74
2022/12/30 10:12:13;;;;;;;8.60;3.30;;;;;;;13.04;61.11;100419.08;108912;1259;37133;-73
2022/12/30 10:14:57;;;;;;;5.10;3.50;;;;;;;13.27;60.86;100422.75;108940;1254;37340;-74
2022/12/30 10:17:53;;;;;;;6.10;3.00;;;;;;;13.53;60.44;100432.20;108975;1253;37017;-74
2022/12/30 10:20:50;;;;;;;6.40;3.30;;;;;;;13.71;59.44;100436.19;108945;1273;37059;-73
2022/12/30 10:23:35;;;;;;;6.20;3.50;;;;;;;13.86;59.10;100431.79;108973;1254;36669;-75
2022/12/30 10:26:16;;;;;;;7.00;3.50;;;;;;;14.06;58.64;100438.81;108949;1253;37489;-73
2022/12/30 10:28:58;;;;;;;6.00;3.80;;;;;;;14.15;57.90;100438.19;108932;1254;36319;-75
2022/12/30 10:31:36;;;;;;;5.90;3.90;;;;;;;14.14;57.44;100432.61;108968;1261;37050;-76
2022/12/30 10:34:17;;;;;;;6.00;3.70;;;;;;;13.92;56.96;100429.72;108994;1257;38652;-74
2022/12/30 10:36:59;;;;;;;6.60;3.80;;;;;;;13.62;57.26;100439.11;109015;1265;36873;-74
2022/12/30 10:39:42;;;;;;;7.70;3.50;;;;;;;13.29;57.38;100444.23;108932;1258;37047;-74
2022/12/30 10:42:28;;;;;;;8.50;4.10;;;;;;;12.92;57.64;100441.39;108947;1262;37468;-73
2022/12/30 10:45:26;;;;;;;7.60;3.50;;;;;;;12.59;57.84;100440.98;108887;1257;37255;-73
2022/12/30 10:48:10;;;;;;;6.50;3.60;;;;;;;12.22;58.04;100441.39;108977;1257;36643;-76
2022/12/30 10:50:45;;;;;;;6.30;3.50;;;;;;;11.90;58.55;100446.80;108980;1273;37476;-74
2022/12/30 10:53:24;;;;;;;6.00;3.40;;;;;;;11.62;58.72;100444.27;108925;1255;37378;-75
2022/12/30 10:56:00;;;;;;;8.10;3.40;;;;;;;11.35;59.31;100443.95;108988;1251;37240;-75
2022/12/30 10:58:41;;;;;;;7.40;3.70;;;;;;;11.11;59.72;100449.77;108959;1257;38610;-78
2022/12/30 11:01:24;;;;;;;9.50;3.60;;;;;;;10.92;60.39;100446.52;108967;1273;36985;-73
2022/12/30 11:04:01;;;;;;;8.30;3.40;;;;;;;10.77;60.54;100444.97;108935;1263;38738;-74
2022/12/30 11:06:40;;;;;;;8.60;3.40;;;;;;;10.60;60.72;100454.00;108931;1273;37533;-78
2022/12/30 11:09:36;;;;;;;7.00;3.10;;;;;;;10.44;60.83;100461.38;108951;1261;37680;-78
2022/12/30 11:15:21;;;;;;;5.00;2.70;;;;;;;10.14;60.91;100471.48;108895;1251;36978;-76
2022/12/30 11:17:59;;;;;;;4.80;2.60;;;;;;;10.04;60.88;100473.21;108950;1273;37471;-76
2022/12/30 11:20:40;;;;;;;7.70;2.90;;;;;;;9.95;60.90;100479.80;109011;1253;36668;-76
2022/12/30 11:23:33;;;;;;;6.40;3.00;;;;;;;9.86;60.65;100485.13;108997;1254;37052;-74
2022/12/30 11:26:16;;;;;;;4.70;2.40;;;;;;;9.75;60.40;100495.28;108945;1273;37622;-75
2022/12/30 11:28:52;;;;;;;12.30;3.10;;;;;;;9.66;60.48;100493.30;108848;1273;172465;-74
2022/12/30 11:31:33;;;;;;;9.90;3.00;;;;;;;9.63;60.78;100495.48;108996;1253;38463;-75
2022/12/30 11:34:14;;;;;;;8.80;3.20;;;;;;;9.62;60.99;100509.26;108972;1263;36316;-73
2022/12/30 11:36:49;;;;;;;7.00;3.10;;;;;;;9.61;60.92;100511.41;108991;1273;39084;-74
2022/12/30 11:39:38;;;;;;;7.00;3.00;;;;;;;9.58;61.15;100512.02;108948;1254;37543;-73
2022/12/30 11:42:35;;;;;;;9.00;2.90;;;;;;;9.54;61.26;100512.83;108955;1273;36896;-77
2022/12/30 11:45:32;;;;;;;6.80;3.00;;;;;;;9.47;60.78;100512.34;108937;1253;37211;-77
2022/12/30 11:48:18;;;;;;;8.10;3.00;;;;;;;9.39;60.80;100511.56;108964;1266;36994;-73
2022/12/30 11:50:58;;;;;;;7.80;3.00;;;;;;;9.30;61.09;100517.05;108980;1273;37003;-74
2022/12/30 11:54:13;;;;;;;8.80;3.40;;;;;;;9.23;61.20;100524.24;108908;1273;37209;-74
2022/12/30 11:57:02;;;;;;;9.60;3.40;;;;;;;9.12;61.52;100525.08;108913;1259;37424;-76
2022/12/30 11:59:38;;;;;;;9.00;3.10;;;;;;;9.04;61.46;100522.89;108913;1263;36398;-74
2022/12/30 12:02:21;;;;;;;6.50;3.20;;;;;;;8.97;61.67;100521.35;108906;1267;38000;-71
2022/12/30 12:04:56;;;;;;;7.70;3.60;;;;;;;8.89;61.66;100519.33;108922;1273;36960;-72
2022/12/30 12:07:33;;;;;;;8.10;3.50;;;;;;;8.82;62.07;100520.37;108965;1250;36275;-75
2022/12/30 12:10:19;;;;;;;6.70;3.40;;;;;;;8.77;62.04;100519.67;108850;1253;174639;-73
2022/12/30 12:13:01;;;;;;;6.70;3.10;;;;;;;8.70;62.41;100525.42;108992;1273;37853;-73
2022/12/30 12:15:40;;;;;;;8.70;3.30;;;;;;;8.63;62.60;100521.61;109021;1253;37051;-76
2022/12/30 12:18:18;;;;;;;7.40;3.10;;;;;;;8.57;62.70;100527.52;108819;1257;38873;-76
2022/12/30 12:21:11;;;;;;;9.20;2.80;;;;;;;8.51;62.79;100529.77;109011;1273;37353;-74
2022/12/30 12:23:58;;;;;;;10.40;3.60;;;;;;;8.43;62.99;100530.66;109060;1260;36968;-73
2022/12/30 12:26:38;;;;;;;6.50;2.90;;;;;;;8.38;63.15;100528.88;108973;1273;37519;-77
2022/12/30 12:29:14;;;;;;;9.30;3.70;;;;;;;8.32;63.10;100537.71;108968;1260;35987;-76
2022/12/30 12:32:42;;;;;;;9.00;3.30;;;;;;;8.27;63.34;100542.88;108966;1263;37123;-78
2022/12/30 12:35:25;;;;;;;8.60;3.20;;;;;;;8.18;63.67;100535.63;108969;1257;37560;-76
2022/12/30 12:38:09;;;;;;;7.00;2.90;;;;;;;8.13;63.82;100535.77;108978;1254;37081;-74
2022/12/30 12:41:00;;;;;;;8.10;3.40;;;;;;;8.09;63.88;100536.38;109044;1273;37498;-75
2022/12/30 12:43:47;;;;;;;14.10;3.60;;;;;;;8.07;64.12;100537.14;108946;1263;38256;-75
2022/12/30 12:46:39;;;;;;;9.40;3.60;;;;;;;8.06;64.24;100543.77;109183;1251;36980;-76
2022/12/30 12:49:44;;;;;;;6.90;3.00;;;;;;;8.03;64.61;100542.80;109112;1273;36972;-76
2022/12/30 12:52:32;;;;;;;9.10;3.70;;;;;;;8.01;64.67;100547.36;109037;1251;174683;-76
2022/12/30 12:55:55;;;;;;;9.50;3.00;;;;;;;7.97;64.75;100546.75;109165;1253;38277;-77
2022/12/30 12:58:40;;;;;;;6.80;3.30;;;;;;;7.91;64.94;100547.77;109011;1253;38772;-75
2022/12/30 13:01:20;;;;;;;11.30;3.50;;;;;;;7.87;65.28;100548.56;108859;1263;172559;-75
2022/12/30 13:04:10;;;;;;;7.70;3.10;;;;;;;7.81;65.57;100544.88;108997;1253;36143;-75
2022/12/30 13:06:57;;;;;;;10.60;3.50;;;;;;;7.75;65.79;100549.19;109014;1253;36961;-77
2022/12/30 13:09:59;;;;;;;9.50;4.40;;;;;;;7.71;66.21;100549.64;109042;1253;36137;-77